Latest Weather Observations for Keith West

IDS60801

Issued at 7:34 pm CDT Sunday 29 March 2015 (issued every 30 minutes, with the page automatically refreshed every 10 minutes)

About weather observations | Map of weather stations | Latest weather observations for SA | Other Formats
Station Details ID: 025557 Name: MUNKORA Lat: -36.11 Lon: 140.33 Height: 27.0 m
Data from the previous 72 hours. | See also: Recent months for locations in South Australia
Date/Time
CDT
Temp
°C
App
Temp
°C
Dew
Point
Rel
Hum
%
Delta-T
°C
Wind Press
QNH
hPa
Press
MSL
hPa
Rain
since 9 am
mm
Dir
 
Spd
km/h
Gust
km/h
Spd
kts
Gust
kts
29/07:30pm 20.7 18.0 7.3 42 6.8 SSW 11 17 6 9 1022.3 1022.3 0.0
29/07:00pm 21.1 17.6 7.3 41 7.1 SSW 15 20 8 11 1022.1 1022.1 0.0
29/06:30pm 21.7 17.2 6.8 38 7.6 SW 20 26 11 14 1021.7 1021.7 0.0
29/06:00pm 22.5 17.5 6.3 35 8.2 SW 22 26 12 14 1021.4 1021.4 0.0
29/05:30pm 22.9 17.5 6.2 34 8.5 SW 24 32 13 17 1021.2 1021.2 0.0
29/05:00pm 23.8 19.2 6.6 33 8.8 SW 20 30 11 16 1020.8 1020.8 0.0
29/04:30pm 24.9 20.8 6.1 30 9.6 WSW 17 26 9 14 1020.6 1020.6 0.0
29/04:00pm 25.0 21.6 5.7 29 9.8 WNW 13 24 7 13 1020.6 1020.6 0.0
29/03:30pm 25.4 21.3 6.1 29 9.9 W 17 26 9 14 1020.8 1020.8 0.0
29/03:00pm 24.5 21.5 5.8 30 9.5 NW 11 19 6 10 1021.1 1021.1 0.0
29/02:30pm 24.5 21.2 6.3 31 9.3 WNW 13 26 7 14 1021.3 1021.3 0.0
29/02:00pm 23.8 21.3 6.6 33 8.8 WSW 9 20 5 11 1021.6 1021.6 0.0
29/01:30pm 23.2 19.8 6.1 33 8.7 W 13 22 7 12 1022.1 1022.1 0.0
29/01:00pm 22.9 20.4 6.6 35 8.3 WSW 9 19 5 10 1022.3 1022.3 0.0
29/12:30pm 22.2 20.2 6.4 36 8.0 NNW 6 13 3 7 1022.5 1022.5 0.0
29/12:00pm 20.6 18.6 6.9 41 6.9 NW 7 13 4 7 1022.9 1022.9 0.0
29/11:30am 20.8 19.2 7.8 43 6.7 NW 6 13 3 7 1023.2 1023.2 0.0
29/11:00am 20.4 18.8 8.1 45 6.4 NNW 6 11 3 6 1023.3 1023.3 0.0
29/10:30am 19.6 18.5 8.3 48 5.8 N 4 7 2 4 1023.4 1023.4 0.0
29/10:00am 18.2 17.5 8.7 54 4.9 NE 2 6 1 3 1023.6 1023.6 0.0
29/09:30am 15.9 15.2 8.4 61 3.8 NE 2 6 1 3 1023.7 1023.7 0.0
29/09:00am 13.6 12.2 8.9 73 2.4 SE 6 6 3 3 1023.1 1023.1 0.0
29/08:30am 9.8 9.2 7.2 84 1.2 CALM 0 0 0 0 1023.0 1023.0 0.0
29/08:00am 6.7 5.5 4.5 86 1.0 CALM 0 0 0 0 1022.8 1022.8 0.0
29/07:30am 5.8 4.4 3.6 86 0.9 CALM 0 0 0 0 1022.4 1022.4 0.0
29/07:00am 6.5 5.2 4.2 85 1.0 CALM 0 0 0 0 1022.1 1022.1 0.0
29/06:30am 6.4 5.1 4.2 86 0.9 CALM 0 0 0 0 1021.6 1021.6 0.0
29/06:00am 7.2 6.1 5.2 87 0.9 CALM 0 0 0 0 1021.5 1021.5 0.0
29/05:30am 7.2 6.1 5.0 86 1.0 CALM 0 0 0 0 1021.3 1021.3 0.0
29/05:00am 7.2 6.1 5.0 86 1.0 CALM 0 0 0 0 1021.2 1021.2 0.0
29/04:30am 7.0 5.8 4.7 85 1.0 CALM 0 0 0 0 1021.1 1021.1 0.0
29/04:00am 6.5 5.2 4.0 84 1.1 CALM 0 0 0 0 1020.9 1020.9 0.0
29/03:30am 7.7 6.7 5.5 86 1.0 CALM 0 0 0 0 1020.7 1020.7 0.0
29/03:00am 7.2 6.0 4.5 83 1.2 CALM 0 0 0 0 1020.8 1020.8 0.0
29/02:30am 7.5 6.3 4.8 83 1.2 CALM 0 0 0 0 1021.0 1021.0 0.0
29/02:00am 8.1 7.1 5.6 84 1.1 CALM 0 0 0 0 1021.3 1021.3 0.0
29/01:30am 8.2 7.2 5.7 84 1.1 CALM 0 0 0 0 1021.3 1021.3 0.0
29/01:00am 8.4 7.4 5.5 82 1.3 CALM 0 0 0 0 1021.6 1021.6 0.0
29/12:30am 9.0 8.0 5.7 80 1.5 CALM 0 0 0 0 1021.8 1021.8 0.0
29/12:00am 9.5 8.6 5.9 78 1.6 CALM 0 0 0 0 1021.9 1021.9 0.0
 
Date/Time
CDT
Temp
°C
App
Temp
°C
Dew
Point
Rel
Hum
%
Delta-T
°C
Wind Press
QNH
hPa
Press
MSL
hPa
Rain
since 9 am
mm
Dir
 
Spd
km/h
Gust
km/h
Spd
kts
Gust
kts
28/11:30pm 10.5 9.5 7.2 80 1.6 SSE 2 2 1 1 1022.2 1022.2 0.0
28/11:00pm 10.1 9.2 6.1 76 1.9 CALM 0 0 0 0 1022.3 1022.3 0.0
28/10:30pm 10.9 10.1 6.6 75 2.0 CALM 0 0 0 0 1022.3 1022.3 0.0
28/10:00pm 13.4 11.8 7.8 69 2.8 S 6 7 3 4 1022.2 1022.2 0.0
28/09:30pm 13.6 11.8 8.0 69 2.8 S 7 9 4 5 1022.1 1022.1 0.0
28/09:00pm 14.1 12.5 8.1 67 3.0 SSW 6 9 3 5 1022.2 1022.2 0.0
28/08:30pm 15.8 14.1 8.5 62 3.7 SSE 7 11 4 6 1021.7 1021.7 0.0
28/08:00pm 16.1 13.2 8.3 60 4.0 S 13 15 7 8 1021.4 1021.4 0.0
28/07:30pm 17.5 14.3 8.4 55 4.7 S 15 19 8 10 1021.1 1021.1 0.0
28/07:00pm 18.6 15.1 8.6 52 5.2 SSW 17 22 9 12 1021.0 1021.0 0.0
28/06:30pm 19.9 15.3 8.3 47 6.0 SSW 22 28 12 15 1020.7 1020.7 0.0
28/06:00pm 22.6 20.2 6.8 36 8.1 WNW 9 15 5 8 1020.7 1020.7 0.0
28/05:30pm 22.7 19.3 6.0 34 8.4 NW 13 26 7 14 1020.7 1020.7 0.0
28/05:00pm 23.6 20.4 6.8 34 8.7 NW 13 19 7 10 1020.7 1020.7 0.0
28/04:30pm 22.5 19.9 5.9 34 8.4 WNW 9 19 5 10 1021.0 1021.0 0.0
28/04:00pm 22.7 19.7 6.0 34 8.5 NW 11 19 6 10 1021.4 1021.4 0.0
28/03:30pm 22.5 19.9 6.3 35 8.2 NNW 9 19 5 10 1021.7 1021.7 0.0
28/03:00pm 22.3 19.8 6.5 36 8.0 WNW 9 19 5 10 1022.3 1022.3 0.0
28/02:30pm 21.5 17.8 6.2 37 7.7 NW 15 28 8 15 1022.6 1022.6 0.0
28/02:00pm 21.7 20.5 7.9 41 7.2 ENE 4 13 2 7 1023.1 1023.1 0.0
28/01:30pm 20.3 17.6 7.3 43 6.6 WNW 11 19 6 10 1023.7 1023.7 0.0
28/01:00pm 20.1 18.5 7.8 45 6.3 WSW 6 9 3 5 1024.2 1024.2 0.0
28/12:30pm 18.8 17.6 7.9 49 5.6 NNW 4 13 2 7 1024.7 1024.7 0.0
28/12:00pm 17.4 16.1 7.7 53 4.9 SSE 4 7 2 4 1025.3 1025.3 0.0
28/11:30am 16.6 14.8 7.8 56 4.4 WNW 7 13 4 7 1025.5 1025.5 0.0
28/11:00am 16.3 14.6 7.5 56 4.4 N 6 13 3 7 1026.0 1026.0 0.0
28/10:30am 15.6 14.4 8.1 61 3.8 N 4 11 2 6 1026.2 1026.2 0.0
28/10:00am 15.3 14.1 8.1 62 3.6 NNE 4 7 2 4 1026.4 1026.4 0.0
28/09:30am 14.8 13.4 8.7 67 3.1 ESE 6 7 3 4 1026.6 1026.6 0.0
28/09:00am 14.2 14.1 9.4 73 2.4 CALM 0 0 0 0 1026.9 1026.9 0.0
28/08:30am 13.8 13.8 9.8 77 2.0 CALM 0 0 0 0 1026.4 1026.4 0.0
28/08:00am 13.4 13.5 10.0 80 1.8 CALM 0 2 0 1 1026.5 1026.5 0.0
28/07:30am 13.3 12.6 9.9 80 1.7 E 4 6 2 3 1026.1 1026.1 0.0
28/07:00am 13.2 12.5 10.0 81 1.6 S 4 6 2 3 1025.8 1025.8 0.0
28/06:30am 13.2 13.2 9.8 80 1.7 CALM 0 0 0 0 1026.1 1026.1 0.0
28/06:00am 13.2 13.2 9.8 80 1.7 CALM 0 2 0 1 1026.0 1026.0 0.0
28/05:30am 13.4 12.3 9.8 79 1.8 SSE 6 7 3 4 1025.6 1025.6 0.0
28/05:00am 13.4 13.1 10.0 80 1.8 SE 2 4 1 2 1025.3 1025.3 0.0
28/04:30am 13.3 12.6 9.9 80 1.7 ESE 4 7 2 4 1025.1 1025.1 0.0
28/04:00am 13.3 12.9 9.9 80 1.7 SSE 2 6 1 3 1025.4 1025.4 0.0
28/03:30am 13.4 13.4 9.8 79 1.8 CALM 0 0 0 0 1025.7 1025.7 0.0
28/03:00am 13.4 13.1 10.0 80 1.7 S 2 2 1 1 1026.1 1026.1 0.0
28/02:30am 13.4 12.6 9.8 79 1.8 SSE 4 6 2 3 1026.0 1026.0 0.0
28/02:00am 13.3 12.6 9.9 80 1.7 SSE 4 6 2 3 1026.2 1026.2 0.0
28/01:30am 13.1 12.4 9.9 81 1.6 S 4 4 2 2 1026.4 1026.4 0.0
28/01:00am 13.4 12.6 9.8 79 1.9 S 4 6 2 3 1026.5 1026.5 0.0
28/12:30am 13.3 12.5 9.7 79 1.8 S 4 6 2 3 1026.5 1026.5 0.0
28/12:00am 13.6 12.4 9.6 77 2.0 S 6 7 3 4 1026.7 1026.7 0.0
 
Date/Time
CDT
Temp
°C
App
Temp
°C
Dew
Point
Rel
Hum
%
Delta-T
°C
Wind Press
QNH
hPa
Press
MSL
hPa
Rain
since 9 am
mm
Dir
 
Spd
km/h
Gust
km/h
Spd
kts
Gust
kts
27/11:30pm 14.2 12.9 9.8 75 2.3 S 7 9 4 5 1026.8 1026.8 0.0
27/11:00pm 14.3 13.0 9.9 75 2.3 S 7 9 4 5 1026.8 1026.8 0.0
27/10:30pm 14.3 13.0 9.9 75 2.3 S 7 9 4 5 1026.8 1026.8 0.0
27/10:00pm 14.4 13.1 9.8 74 2.4 SSW 7 9 4 5 1026.9 1026.9 0.0
27/09:30pm 14.7 12.9 9.5 71 2.7 SSW 9 13 5 7 1026.9 1026.9 0.0
27/09:00pm 15.0 12.9 9.6 70 2.8 S 11 17 6 9 1026.8 1026.8 0.0
27/08:30pm 14.8 12.7 9.8 72 2.6 S 11 13 6 7 1026.7 1026.7 0.0
27/08:00pm 14.7 12.6 9.7 72 2.6 S 11 15 6 8 1026.5 1026.5 0.0
27/07:30pm 15.2 12.0 9.8 70 2.8 SSW 17 22 9 12 1026.3 1026.3 0.0
27/07:00pm 15.9 13.8 9.6 66 3.3 S 11 15 6 8 1026.1 1026.1 0.0
27/06:30pm 16.1 12.7 9.3 64 3.5 S 17 22 9 12 1025.9 1025.9 0.0
27/06:00pm 16.6 12.7 8.6 59 4.1 SSW 19 26 10 14 1025.8 1025.8 0.0
27/05:30pm 17.5 13.9 8.4 55 4.6 S 17 24 9 13 1025.7 1025.7 0.0
27/05:00pm 17.0 13.9 8.7 58 4.3 SSW 15 22 8 12 1025.6 1025.6 0.0
27/04:30pm 17.1 13.2 9.3 60 4.0 S 20 28 11 15 1025.8 1025.8 0.0
27/04:00pm 17.0 14.7 8.9 59 4.2 S 11 19 6 10 1025.8 1025.8 0.0
27/03:30pm 17.1 13.9 8.3 56 4.5 SSW 15 22 8 12 1026.0 1026.0 0.0
27/03:00pm 16.8 13.2 8.5 58 4.2 SSW 17 24 9 13 1026.2 1026.2 0.0
27/02:30pm 16.6 13.9 8.8 60 4.0 SW 13 19 7 10 1026.4 1026.4 0.0
27/02:00pm 17.7 13.8 8.8 56 4.6 SW 19 32 10 17 1026.6 1026.6 0.0
27/01:30pm 17.8 15.9 8.9 56 4.6 SW 9 20 5 11 1027.1 1027.1 0.0
27/01:00pm 16.4 12.5 8.6 60 4.0 SW 19 26 10 14 1027.6 1027.6 0.0
27/12:30pm 16.2 12.6 8.2 59 4.0 SW 17 22 9 12 1027.9 1027.9 0.0
27/12:00pm 15.8 11.6 7.6 58 4.1 SW 19 24 10 13 1028.1 1028.1 0.0
27/11:30am 16.1 13.5 7.6 57 4.2 SSW 11 19 6 10 1028.3 1028.3 0.0
27/11:00am 14.9 13.7 9.5 70 2.8 SW 6 11 3 6 1028.5 1028.5 0.0
27/10:30am 13.9 12.9 10.3 79 1.9 S 6 7 3 4 1028.7 1028.7 0.0
27/10:00am 13.1 11.8 9.9 81 1.6 S 7 11 4 6 1028.5 1028.5 0.0
27/09:30am 12.5 12.2 10.2 86 1.2 SW 2 6 1 3 1028.4 1028.4 0.0
27/09:00am 12.2 11.6 10.3 88 1.0 W 4 6 2 3 1028.1 1028.1 0.0
27/08:30am 11.6 11.3 10.2 91 0.7 WSW 2 4 1 2 1027.8 1027.8 0.0
27/08:00am 11.2 10.9 10.0 92 0.6 SW 2 4 1 2 1027.5 1027.5 0.0
27/07:30am 10.8 9.6 9.6 92 0.6 SW 6 6 3 3 1027.4 1027.4 0.0
27/07:00am 11.2 9.9 10.0 92 0.6 S 7 9 4 5 1027.1 1027.1 0.0
27/06:30am 11.3 8.9 10.2 93 0.6 S 13 17 7 9 1026.8 1026.8 0.0
27/06:00am 11.3 9.3 10.0 92 0.7 SSW 11 15 6 8 1026.5 1026.5 0.0
27/05:30am 11.2 9.2 10.0 92 0.6 SW 11 17 6 9 1026.3 1026.3 0.0
27/05:00am 11.0 9.6 9.4 90 0.8 WSW 7 9 4 5 1026.3 1026.3 0.0
27/04:30am 10.7 9.3 8.8 88 0.9 SW 6 6 3 3 1026.1 1026.1 0.0
27/04:00am 11.4 9.1 9.1 86 1.1 S 11 17 6 9 1026.0 1026.0 0.0
27/03:30am 11.4 9.1 9.1 86 1.1 SW 11 15 6 8 1026.2 1026.2 0.0
27/03:00am 11.1 9.6 9.2 88 0.9 WSW 7 9 4 5 1026.4 1026.4 0.0
27/02:30am 11.3 9.8 9.2 87 1.0 W 7 9 4 5 1026.4 1026.4 0.0
27/02:00am 11.2 9.7 9.1 87 1.0 WNW 7 9 4 5 1026.4 1026.4 0.0
27/01:30am 10.8 8.8 8.7 87 1.0 W 9 9 5 5 1026.4 1026.4 0.0
27/01:00am 11.6 9.7 9.0 84 1.3 WSW 9 9 5 5 1026.4 1026.4 0.0
27/12:30am 11.9 10.0 9.1 83 1.4 SW 9 11 5 6 1026.5 1026.5 0.0
27/12:00am 12.0 9.3 9.0 82 1.5 SW 13 17 7 9 1026.5 1026.5 0.0
 
Date/Time
CDT
Temp
°C
App
Temp
°C
Dew
Point
Rel
Hum
%
Delta-T
°C
Wind Press
QNH
hPa
Press
MSL
hPa
Rain
since 9 am
mm
Dir
 
Spd
km/h
Gust
km/h
Spd
kts
Gust
kts
26/11:30pm 12.2 9.9 8.9 80 1.6 SW 11 26 6 14 1026.6 1026.6 0.0
26/11:00pm 12.0 10.5 8.5 79 1.7 SSW 6 9 3 5 1026.7 1026.7 0.0
26/10:30pm 11.8 9.9 7.5 75 2.1 SW 7 11 4 6 1026.6 1026.6 0.0
26/10:00pm 12.7 9.7 7.8 72 2.4 SW 13 17 7 9 1026.6 1026.6 0.0
26/09:30pm 12.6 9.4 8.3 75 2.1 SSW 15 20 8 11 1026.4 1026.4 0.0
26/09:00pm 12.4 9.5 8.3 76 2.0 WSW 13 17 7 9 1026.3 1026.3 0.0
26/08:30pm 12.0 7.1 8.5 79 1.7 WSW 24 32 13 17 1026.1 1026.1 0.0
26/08:00pm 11.6 6.5 9.2 85 1.2 SW 26 33 14 18 1026.0 1026.0 0.0
26/07:48pm 12.7 7.3 8.0 73 2.3 SW 26 44 14 24 1025.8 1025.8 0.0

Other Formats:

Comma delimited format used in spreadsheet applications
http://www.bom.gov.au/fwo/IDS60801/IDS60801.95815.axf

JavaScript Object Notation format (JSON) in row-major order
http://www.bom.gov.au/fwo/IDS60801/IDS60801.95815.json